Flight Track Log - Related Links

Times and Time Zones

All times are in EDT time to prevent confusion due to time zone crossing. See the KCE2 flight status page for this flight to view local times or setup timezone preferences in your user account.

Time Position Orientation Groundspeed Altitude Reporting Facility
EDT Latitude Longitude Course Direction KTS MPH feet Rate Location/Type
Fri 03:48:32 PM 45.2600 -66.1760 239° Southwest 325 374 12,600  Level FlightAware ADS-B
Fri 03:49:27 PM 45.2150 -66.2810 239° Southwest 349 402 16,100 3,557 Climbing FlightAware ADS-B
Fri 03:50:52 PM 45.1390 -66.4540 238° Southwest 368 423 20,900 3,160 Climbing FlightAware ADS-B
Fri 03:51:57 PM 45.0800 -66.5890 238° Southwest 376 433 24,000 2,711 Climbing FlightAware ADS-B
Fri 03:53:07 PM 45.0150 -66.7370 238° Southwest 383 441 27,000 2,100 Climbing FlightAware ADS-B
Fri 03:54:17 PM 44.9470 -66.8910 238° Southwest 406 467 28,900 1,800 Climbing FlightAware ADS-B
Fri 03:55:37 PM 44.8660 -67.0730 238° Southwest 412 474 31,500 1,760 Climbing FlightAware ADS-B
Fri 03:56:47 PM 44.7930 -67.2360 238° Southwest 425 489 33,300 1,500 Climbing FlightAware ADS-B
Fri 03:57:57 PM 44.7190 -67.4000 238° Southwest 428 493 35,000 1,500 Climbing FlightAware ADS-B
Fri 03:59:07 PM 44.6440 -67.5650 237° Southwest 422 486 36,800 1,510 Climbing FlightAware ADS-B
Fri 04:00:32 PM 44.5570 -67.7560 237° Southwest 402 463 38,900 1,239 Climbing FlightAware ADS-B
Fri 04:01:42 PM 44.4880 -67.9070 237° Southwest 406 467 40,000 471 Climbing FlightAware ADS-B
Fri 04:02:52 PM 44.4120 -68.0710 237° Southwest 430 495 40,000  Level FlightAware ADS-B
Fri 04:03:57 PM 44.3400 -68.2270 237° Southwest 443 510 40,000  Level FlightAware ADS-B
Fri 04:04:42 PM 44.2900 -68.3350 237° Southwest 444 511 40,000  Level FlightAware ADS-B
Fri 04:05:27 PM 44.2390 -68.4440 237° Southwest 442 509 40,000 -141 Level FlightAware ADS-B
Fri 04:06:07 PM 44.1950 -68.5380 237° Southwest 442 509 39,800 -1,059 Descending FlightAware ADS-B
Fri 04:06:52 PM 44.1430 -68.6470 236° Southwest 439 505 38,500 -1,080 Descending FlightAware ADS-B
Fri 04:07:47 PM 44.0840 -68.7700 236° Southwest 431 496 38,000 -316 Descending FlightAware ADS-B
Fri 04:08:27 PM 44.0460 -68.8480 236° Southwest 431 496 38,000 -2,463 Level FlightAware ADS-B
Fri 04:09:22 PM 43.9830 -68.9830 237° Southwest 412 474 34,100 -2,463 Descending FlightAware ADS-B
Fri 04:10:02 PM 43.9470 -69.0580 236° Southwest 412 474 34,100  Level FlightAware ADS-B
Fri 04:10:42 PM 43.9110 -69.1320 236° Southwest 412 474 34,100  Level FlightAware ADS-B
Fri 04:11:32 PM 43.8660 -69.2250 236° Southwest 412 474 34,100  Level FlightAware ADS-B
Fri 04:12:12 PM 43.8290 -69.3000 236° Southwest 412 474 34,100 -6,825 Level FlightAware ADS-B
Fri 04:12:52 PM 43.7520 -69.4650 237° Southwest 431 496 25,000 -7,694 Descending FlightAware ADS-B
Fri 04:13:37 PM 43.7010 -69.5690 236° Southwest 420 483 23,200 -2,259 Descending FlightAware ADS-B
Fri 04:14:17 PM 43.6620 -69.6500 236° Southwest 404 465 21,800 -988 Descending FlightAware ADS-B
Fri 04:15:02 PM 43.6180 -69.7360 235° Southwest 404 465 21,800  Level FlightAware ADS-B
Fri 04:15:42 PM 43.5820 -69.8080 235° Southwest 404 465 21,800 -3,825 Level FlightAware ADS-B
Fri 04:16:22 PM 43.5380 -69.9020 237° Southwest 363 418 16,700 -5,082 Descending FlightAware ADS-B
Fri 04:17:07 PM 43.4950 -69.9900 236° Southwest 354 407 14,600 -2,259 Descending FlightAware ADS-B
Fri 04:17:47 PM 43.4590 -70.0640 236° Southwest 358 412 13,500 -1,482 Descending FlightAware ADS-B
Fri 04:18:32 PM 43.4180 -70.1460 235° Southwest 360 414 12,500 -1,624 Descending FlightAware ADS-B
Fri 04:19:12 PM 43.3800 -70.2220 235° Southwest 346 398 11,200 -2,188 Descending FlightAware ADS-B
Fri 04:19:57 PM 43.3390 -70.3030 235° Southwest 322 371 9,400 -2,314 Descending FlightAware ADS-B
Fri 04:20:22 PM 43.3190 -70.3440 236° Southwest 312 359 8,500 -1,964 Descending FlightAware ADS-B
Fri 04:20:52 PM 43.2950 -70.3920 236° Southwest 296 341 7,600 -1,745 Descending FlightAware ADS-B
Fri 04:21:17 PM 43.2780 -70.4270 236° Southwest 290 334 6,900 -1,800 Descending FlightAware ADS-B
Fri 04:21:32 PM 43.2650 -70.4520 234° Southwest 288 331 6,400 -1,867 Descending FlightAware ADS-B
Fri 04:22:02 PM 43.2420 -70.4980 236° Southwest 292 336 5,500 -1,650 Descending FlightAware ADS-B
Fri 04:22:12 PM 43.2340 -70.5140 236° Southwest 292 336 5,300 -1,650 Descending FlightAware ADS-B
Fri 04:22:42 PM 43.2120 -70.5580 236° Southwest 292 336 4,400 -1,733 Descending FlightAware ADS-B
Fri 04:22:57 PM 43.2010 -70.5800 236° Southwest 297 342 4,000 -800 Descending FlightAware ADS-B
Fri 04:23:27 PM 43.1750 -70.6230 230° Southwest 288 331 3,800 -764 Descending FlightAware ADS-B
Fri 04:23:52 PM 43.1500 -70.6450 213° Southwest 278 320 3,300 -1,350 Descending FlightAware ADS-B
Fri 04:24:07 PM 43.1300 -70.6620 212° Southwest 270 311 2,900 -840 Descending FlightAware ADS-B
Fri 04:24:42 PM 43.0980 -70.6910 213° Southwest 272 313 2,600 -1,120 Descending FlightAware ADS-B
Fri 04:25:22 PM 43.0667 -70.7333 213° Southwest 220 253 1,500 -1,200 Descending KA90
Fri 04:26:22 PM 43.0500 -70.7833 245° Southwest 165 190 600 1,517 Descending KA90
Fri 04:28:20 PM 43.0611 -70.8942 278° West 132 152 6,000 1,820 Climbing Boston Center
Fri 04:29:20 PM 43.0617 -70.9425 271° West 132 152 6,000  Level Boston Center
Fri 04:30:20 PM 43.0622 -70.9936 271° West 132 152 6,000  Level Boston Center
Fri 04:31:20 PM 43.0628 -71.0219 272° West 132 152 6,000  Level Boston Center
Fri 04:33:00 PM 43.0667 -70.8167 36° Northeast  Level FlightAware Approximate
Fri 04:40:00 PM 43.0779 -70.8233 36° Northeast  Level Estimated
Fri 04:41:00 PM 43.0779 -70.8233 36° Northeast  Level Estimated

Login

Don't have an account? Register now (free) for customized features, flight alerts, and more!